createdAt,value
2023-03-04T00:00:31.173Z,13.10
2023-03-04T00:02:58.317Z,13.00
2023-03-04T00:05:25.313Z,13.00
2023-03-04T00:07:52.233Z,13.00
2023-03-04T00:10:19.317Z,13.00
2023-03-04T00:12:46.294Z,13.00
2023-03-04T00:15:13.190Z,13.00
2023-03-04T00:17:40.433Z,13.00
2023-03-04T00:20:08.312Z,13.00
2023-03-04T00:22:35.242Z,13.00
2023-03-04T00:25:02.264Z,13.00
2023-03-04T00:27:29.206Z,13.00
2023-03-04T00:29:56.506Z,13.00
2023-03-04T00:32:23.734Z,12.90
2023-03-04T00:34:50.810Z,12.90
2023-03-04T00:37:17.927Z,12.90
2023-03-04T00:39:44.932Z,12.90
2023-03-04T00:42:11.841Z,12.90
2023-03-04T00:44:39.035Z,12.90
2023-03-04T00:47:06.058Z,12.90
2023-03-04T00:49:32.979Z,12.90
2023-03-04T00:51:59.978Z,12.90
2023-03-04T00:54:27.346Z,12.90
2023-03-04T00:56:54.361Z,12.90
2023-03-04T00:59:21.310Z,12.80
2023-03-04T01:01:48.278Z,12.80
2023-03-04T01:04:17.988Z,12.80
2023-03-04T01:06:45.018Z,12.80
2023-03-04T01:09:12.866Z,12.70
2023-03-04T01:11:39.831Z,12.70
2023-03-04T01:14:06.835Z,12.70
2023-03-04T01:16:33.963Z,12.70
2023-03-04T01:19:00.927Z,12.70
2023-03-04T01:21:27.851Z,12.70
2023-03-04T01:23:55.939Z,12.70
2023-03-04T01:26:22.883Z,12.70
2023-03-04T01:28:49.868Z,12.60
2023-03-04T01:31:16.828Z,12.60
2023-03-04T01:33:44.844Z,12.60
2023-03-04T01:36:11.837Z,12.60
2023-03-04T01:38:38.763Z,12.60
2023-03-04T01:41:07.451Z,12.60
2023-03-04T01:43:36.769Z,12.60
2023-03-04T01:46:04.305Z,12.60
2023-03-04T01:48:37.121Z,12.60
2023-03-04T01:51:05.440Z,12.50
2023-03-04T01:53:33.591Z,12.50
2023-03-04T01:56:21.985Z,12.50
2023-03-04T01:59:14.128Z,12.50
2023-03-04T02:01:44.878Z,12.50
2023-03-04T02:04:12.646Z,12.50
2023-03-04T02:06:41.770Z,12.50
2023-03-04T02:09:10.014Z,12.50
2023-03-04T02:11:38.345Z,12.50
2023-03-04T02:14:06.381Z,12.50
2023-03-04T02:16:33.833Z,12.50
2023-03-04T02:19:01.273Z,12.50
2023-03-04T02:21:31.794Z,12.50
2023-03-04T02:24:15.269Z,12.60
2023-03-04T02:26:43.758Z,12.50
2023-03-04T02:29:14.020Z,12.50
2023-03-04T02:31:49.820Z,12.50
2023-03-04T02:34:29.855Z,12.50
2023-03-04T02:36:57.733Z,12.50
2023-03-04T02:39:42.866Z,12.50
2023-03-04T02:42:12.643Z,12.50
2023-03-04T02:44:43.544Z,12.50
2023-03-04T02:47:12.705Z,12.50
2023-03-04T02:49:41.489Z,12.50
2023-03-04T02:52:12.864Z,12.50
2023-03-04T02:54:40.562Z,12.40
2023-03-04T02:57:10.743Z,12.40
2023-03-04T02:59:41.707Z,12.40
2023-03-04T03:02:11.263Z,12.40
2023-03-04T03:04:39.855Z,12.30
2023-03-04T03:07:10.099Z,12.40
2023-03-04T03:09:37.904Z,12.30
2023-03-04T03:12:05.023Z,12.30
2023-03-04T03:14:33.542Z,12.30
2023-03-04T03:17:01.282Z,12.30
2023-03-04T03:19:28.192Z,12.30
2023-03-04T03:21:55.392Z,12.30
2023-03-04T03:24:22.403Z,12.30
2023-03-04T03:26:49.686Z,12.20
2023-03-04T03:29:16.680Z,12.20
2023-03-04T03:31:43.860Z,12.20
2023-03-04T03:34:11.841Z,12.20
2023-03-04T03:36:38.952Z,12.10
2023-03-04T03:39:06.049Z,12.10
2023-03-04T03:41:32.995Z,12.10
2023-03-04T03:44:00.173Z,12.10
2023-03-04T03:46:27.422Z,12.00
2023-03-04T03:48:54.508Z,12.00
2023-03-04T03:51:21.427Z,12.00
2023-03-04T03:53:48.368Z,12.00
2023-03-04T03:56:15.333Z,11.90
2023-03-04T03:58:42.289Z,11.90
2023-03-04T04:01:09.513Z,11.90
2023-03-04T04:03:36.682Z,11.90
2023-03-04T04:06:03.797Z,11.80
2023-03-04T04:08:30.773Z,11.80
2023-03-04T04:10:57.784Z,11.80
2023-03-04T04:13:24.908Z,11.80
2023-03-04T04:15:52.564Z,11.80
2023-03-04T04:18:19.606Z,11.70
2023-03-04T04:20:46.936Z,11.70
2023-03-04T04:23:14.008Z,11.70
2023-03-04T04:25:40.959Z,11.70
2023-03-04T04:28:08.000Z,11.70
2023-03-04T04:30:35.550Z,11.60
2023-03-04T04:33:04.698Z,11.60
2023-03-04T04:35:36.713Z,11.60
2023-03-04T04:38:03.654Z,11.60
2023-03-04T04:40:30.748Z,11.60
2023-03-04T04:42:57.664Z,11.50
2023-03-04T04:45:24.954Z,11.50
2023-03-04T04:47:53.815Z,11.50
2023-03-04T04:50:20.851Z,11.50
2023-03-04T04:52:47.762Z,11.40
2023-03-04T04:55:14.737Z,11.40
2023-03-04T04:57:41.679Z,11.40
2023-03-04T05:00:10.113Z,11.40
2023-03-04T05:02:37.648Z,11.40
2023-03-04T05:05:05.742Z,11.40
2023-03-04T05:07:33.196Z,11.40
2023-03-04T05:10:00.223Z,11.30
2023-03-04T05:12:27.181Z,11.30
2023-03-04T05:14:54.114Z,11.30
2023-03-04T05:17:21.058Z,11.30
2023-03-04T05:19:48.152Z,11.30
2023-03-04T05:22:18.260Z,11.20
2023-03-04T05:24:45.299Z,11.30
2023-03-04T05:27:12.198Z,11.20
2023-03-04T05:29:39.236Z,11.20
2023-03-04T05:32:06.204Z,11.20
2023-03-04T05:34:33.167Z,11.20
2023-03-04T05:37:00.107Z,11.20
2023-03-04T05:39:26.986Z,11.10
2023-03-04T05:41:53.872Z,11.10
2023-03-04T05:44:20.888Z,11.10
2023-03-04T05:46:47.925Z,11.10
2023-03-04T05:49:14.944Z,11.10
2023-03-04T05:51:41.879Z,11.10
2023-03-04T05:54:08.927Z,11.10
2023-03-04T05:56:35.957Z,11.00
2023-03-04T05:59:02.897Z,11.00
2023-03-04T06:01:31.395Z,11.00
2023-03-04T06:03:58.404Z,11.00
2023-03-04T06:06:25.490Z,11.00
2023-03-04T06:08:52.533Z,11.00
2023-03-04T06:11:19.552Z,11.00
2023-03-04T06:13:46.555Z,11.00
2023-03-04T06:16:13.602Z,11.00
2023-03-04T06:18:40.631Z,10.90
2023-03-04T06:21:07.596Z,10.90
2023-03-04T06:23:34.680Z,10.90
2023-03-04T06:26:02.046Z,10.90
2023-03-04T06:28:29.938Z,10.90
2023-03-04T06:30:58.200Z,10.90
2023-03-04T06:33:25.716Z,10.90
2023-03-04T06:35:56.977Z,10.90
2023-03-04T06:38:24.454Z,10.90
2023-03-04T06:40:51.410Z,10.90
2023-03-04T06:43:19.209Z,10.90
2023-03-04T06:45:46.251Z,11.00
2023-03-04T06:48:13.369Z,11.00
2023-03-04T06:50:40.788Z,11.00
2023-03-04T06:53:08.007Z,11.00
2023-03-04T06:55:34.942Z,11.00
2023-03-04T06:58:01.913Z,11.00
2023-03-04T07:00:28.877Z,11.00
2023-03-04T07:02:55.973Z,11.00
2023-03-04T07:05:22.932Z,11.00
2023-03-04T07:07:50.585Z,11.00
2023-03-04T07:10:20.503Z,11.00
2023-03-04T07:12:47.530Z,11.10
2023-03-04T07:15:14.564Z,11.10
2023-03-04T07:17:41.528Z,11.10
2023-03-04T07:20:09.456Z,11.10
2023-03-04T07:22:36.516Z,11.20
2023-03-04T07:25:04.891Z,11.20
2023-03-04T07:27:31.974Z,11.20
2023-03-04T07:29:59.115Z,11.20
2023-03-04T07:32:26.136Z,11.20
2023-03-04T07:34:53.104Z,11.20
2023-03-04T07:37:20.044Z,11.30
2023-03-04T07:39:47.122Z,11.30
2023-03-04T07:42:14.184Z,11.30
2023-03-04T07:44:42.660Z,11.30
2023-03-04T07:47:09.685Z,11.30
2023-03-04T07:49:36.898Z,11.40
2023-03-04T07:52:06.756Z,11.40
2023-03-04T07:54:33.994Z,11.40
2023-03-04T07:57:00.965Z,11.50
2023-03-04T07:59:28.055Z,11.50
2023-03-04T08:01:55.032Z,11.50
2023-03-04T08:04:22.222Z,11.50
2023-03-04T08:06:49.315Z,11.60
2023-03-04T08:09:16.364Z,11.50
2023-03-04T08:11:43.990Z,11.60
2023-03-04T08:14:12.619Z,11.60
2023-03-04T08:16:39.934Z,11.60
2023-03-04T08:19:07.287Z,11.60
2023-03-04T08:21:34.655Z,11.60
2023-03-04T08:24:08.173Z,11.70
2023-03-04T08:26:41.312Z,11.70
2023-03-04T08:29:09.771Z,11.70
2023-03-04T08:31:36.892Z,11.70
2023-03-04T08:34:05.302Z,11.80
2023-03-04T08:36:32.450Z,11.80
2023-03-04T08:38:59.667Z,11.80
2023-03-04T08:41:27.615Z,11.80
2023-03-04T08:43:54.725Z,11.80
2023-03-04T08:46:21.904Z,11.90
2023-03-04T08:48:48.896Z,11.90
2023-03-04T08:51:18.076Z,11.90
2023-03-04T08:53:46.187Z,12.00
2023-03-04T08:56:14.100Z,12.00
2023-03-04T08:58:41.181Z,12.00
2023-03-04T09:01:11.124Z,12.00
2023-03-04T09:03:38.264Z,12.00
2023-03-04T09:06:06.557Z,12.10
2023-03-04T09:08:34.041Z,12.00
2023-03-04T09:11:01.126Z,12.10
2023-03-04T09:13:31.084Z,12.10
2023-03-04T09:16:01.859Z,12.10
2023-03-04T09:18:29.481Z,12.20
2023-03-04T09:20:56.530Z,12.20
2023-03-04T09:23:23.556Z,12.20
2023-03-04T09:25:50.759Z,12.20
2023-03-04T09:28:19.411Z,12.20
2023-03-04T09:30:46.735Z,12.20
2023-03-04T09:33:14.124Z,12.20
2023-03-04T09:35:41.195Z,12.20
2023-03-04T09:38:08.710Z,12.30
2023-03-04T09:40:47.187Z,12.30
2023-03-04T09:43:29.532Z,12.30
2023-03-04T09:46:00.041Z,12.40
2023-03-04T09:48:29.958Z,12.40
2023-03-04T09:51:06.746Z,12.40
2023-03-04T09:54:04.715Z,12.50
2023-03-04T09:56:35.503Z,12.40
2023-03-04T09:59:11.537Z,12.50
2023-03-04T10:01:58.235Z,12.50
2023-03-04T10:04:51.613Z,12.50
2023-03-04T10:07:24.150Z,12.70
2023-03-04T10:10:05.887Z,12.70
2023-03-04T10:12:36.202Z,12.80
2023-03-04T10:15:11.261Z,12.80
2023-03-04T10:17:44.388Z,12.90
2023-03-04T10:20:37.876Z,12.90
2023-03-04T10:23:17.753Z,13.00
2023-03-04T10:25:53.791Z,13.00
2023-03-04T10:28:30.259Z,13.10
2023-03-04T10:31:17.061Z,13.10
2023-03-04T10:33:44.152Z,13.10
2023-03-04T10:36:29.105Z,13.10
2023-03-04T10:39:16.852Z,13.10
2023-03-04T10:41:46.998Z,13.20
2023-03-04T10:44:17.862Z,13.20
2023-03-04T10:46:47.471Z,13.20
2023-03-04T10:49:17.376Z,13.20
2023-03-04T10:52:21.705Z,13.30
2023-03-04T10:54:54.649Z,13.30
2023-03-04T10:57:43.964Z,13.30
2023-03-04T11:00:26.396Z,13.30
2023-03-04T11:02:53.348Z,13.40
2023-03-04T11:05:25.261Z,13.40
2023-03-04T11:07:56.965Z,13.50
2023-03-04T11:10:31.638Z,13.50
2023-03-04T11:12:58.595Z,13.60
2023-03-04T11:15:27.673Z,13.60
2023-03-04T11:18:04.346Z,13.70
2023-03-04T11:20:31.298Z,13.70
2023-03-04T11:23:06.636Z,13.70
2023-03-04T11:25:42.079Z,13.70
2023-03-04T11:28:24.251Z,13.70
2023-03-04T11:30:57.561Z,13.70
2023-03-04T11:33:33.408Z,13.70
2023-03-04T11:36:32.240Z,13.70
2023-03-04T11:38:59.911Z,13.70
2023-03-04T11:41:38.906Z,13.70
2023-03-04T11:44:07.127Z,13.80
2023-03-04T11:46:51.000Z,13.80
2023-03-04T11:49:39.678Z,13.90
2023-03-04T11:52:36.359Z,13.80
2023-03-04T11:55:09.388Z,13.90
2023-03-04T11:58:10.661Z,13.90
2023-03-04T12:00:46.632Z,13.90
2023-03-04T12:03:40.141Z,14.00
2023-03-04T12:06:31.637Z,14.00
2023-03-04T12:08:58.596Z,14.00
2023-03-04T12:11:48.067Z,14.00
2023-03-04T12:14:46.458Z,14.10
2023-03-04T12:17:41.070Z,14.10
2023-03-04T12:20:30.948Z,14.20
2023-03-04T12:23:06.702Z,14.20
2023-03-04T12:25:37.714Z,14.20
2023-03-04T12:28:22.885Z,14.30
2023-03-04T12:31:15.217Z,14.30
2023-03-04T12:34:08.336Z,14.30
2023-03-04T12:36:53.094Z,14.30
2023-03-04T12:39:48.186Z,14.40
2023-03-04T12:42:28.972Z,14.40
2023-03-04T12:45:14.356Z,14.40
2023-03-04T12:48:12.545Z,14.50
2023-03-04T12:50:47.170Z,14.50
2023-03-04T12:53:56.634Z,14.60
2023-03-04T12:56:40.493Z,14.60
2023-03-04T12:59:14.724Z,14.70
2023-03-04T13:02:07.215Z,14.80
2023-03-04T13:05:27.955Z,14.80
2023-03-04T13:08:06.681Z,14.90
2023-03-04T13:10:33.769Z,14.90
2023-03-04T13:13:02.416Z,15.00
2023-03-04T13:15:38.160Z,15.00
2023-03-04T13:18:30.938Z,15.10
2023-03-04T13:21:20.396Z,15.10
2023-03-04T13:23:47.438Z,15.20
2023-03-04T13:26:19.176Z,15.30
2023-03-04T13:28:46.299Z,15.30
2023-03-04T13:31:16.616Z,15.30
2023-03-04T13:33:53.712Z,15.40
2023-03-04T13:36:52.729Z,15.50
2023-03-04T13:39:27.110Z,15.60
2023-03-04T13:41:56.683Z,15.70
2023-03-04T13:44:42.354Z,15.70
2023-03-04T13:47:15.836Z,15.80
2023-03-04T13:49:42.796Z,16.00
2023-03-04T13:52:41.511Z,16.00
2023-03-04T13:55:40.788Z,16.10
2023-03-04T13:58:22.922Z,16.30
2023-03-04T14:00:53.408Z,16.40
2023-03-04T14:03:30.617Z,16.60
2023-03-04T14:06:12.240Z,16.60
2023-03-04T14:08:39.159Z,16.70
2023-03-04T14:11:10.553Z,16.80
2023-03-04T14:13:38.185Z,17.00
2023-03-04T14:16:05.388Z,17.10
2023-03-04T14:18:32.384Z,17.20
2023-03-04T14:21:00.792Z,17.40
2023-03-04T14:23:33.858Z,17.60
2023-03-04T14:26:12.323Z,17.70
2023-03-04T14:28:50.160Z,18.00
2023-03-04T14:31:20.352Z,18.30
2023-03-04T14:33:50.412Z,18.60
2023-03-04T14:36:21.089Z,18.80
2023-03-04T14:38:54.451Z,19.00
2023-03-04T14:41:27.414Z,19.30
2023-03-04T14:44:08.599Z,19.50
2023-03-04T14:46:44.183Z,19.70
2023-03-04T14:49:14.898Z,19.90
2023-03-04T14:51:52.574Z,20.10
2023-03-04T14:54:39.038Z,20.40
2023-03-04T14:57:28.269Z,20.70
2023-03-04T14:59:55.901Z,21.00
2023-03-04T15:02:38.085Z,21.20
2023-03-04T15:05:17.591Z,21.30
2023-03-04T15:07:51.848Z,21.40
2023-03-04T15:10:26.660Z,21.60
2023-03-04T15:12:56.456Z,21.90
2023-03-04T15:15:35.921Z,22.20
2023-03-04T15:18:15.611Z,22.50
2023-03-04T15:20:42.766Z,22.70
2023-03-04T15:23:14.684Z,22.80
2023-03-04T15:25:41.670Z,22.80
2023-03-04T15:28:17.334Z,22.90
2023-03-04T15:30:44.432Z,22.70
2023-03-04T15:33:12.681Z,22.70
2023-03-04T15:35:40.587Z,22.40
2023-03-04T15:38:08.808Z,22.10
2023-03-04T15:40:42.995Z,21.70
2023-03-04T15:43:15.563Z,21.30
2023-03-04T15:45:43.173Z,21.00
2023-03-04T15:48:12.937Z,20.80
2023-03-04T15:50:47.011Z,20.70
2023-03-04T15:53:36.541Z,20.70
2023-03-04T15:56:05.552Z,20.70
2023-03-04T15:58:34.982Z,20.70
2023-03-04T16:01:04.080Z,20.70
2023-03-04T16:03:31.234Z,20.70
2023-03-04T16:05:58.477Z,20.60
2023-03-04T16:08:25.706Z,20.60
2023-03-04T16:10:53.850Z,20.50
2023-03-04T16:13:23.834Z,20.30
2023-03-04T16:15:50.954Z,20.20
2023-03-04T16:18:18.074Z,20.20
2023-03-04T16:20:48.020Z,20.10
2023-03-04T16:23:19.695Z,20.10
2023-03-04T16:25:49.535Z,20.10
2023-03-04T16:28:16.932Z,19.90
2023-03-04T16:30:44.146Z,19.70
2023-03-04T16:33:15.624Z,19.40
2023-03-04T16:35:44.707Z,19.20
2023-03-04T16:38:28.010Z,18.90
2023-03-04T16:40:55.837Z,18.70
2023-03-04T16:43:23.687Z,18.50
2023-03-04T16:45:50.640Z,18.30
2023-03-04T16:48:17.802Z,18.20
2023-03-04T16:50:44.981Z,18.00
2023-03-04T16:53:31.861Z,17.90
2023-03-04T16:56:04.629Z,17.70
2023-03-04T16:58:31.729Z,17.60
2023-03-04T17:00:58.685Z,17.50
2023-03-04T17:03:25.616Z,17.40
2023-03-04T17:05:52.626Z,17.20
2023-03-04T17:08:19.657Z,17.20
2023-03-04T17:10:47.348Z,17.00
2023-03-04T17:13:14.721Z,17.00
2023-03-04T17:15:45.528Z,16.90
2023-03-04T17:18:12.595Z,16.80
2023-03-04T17:20:40.476Z,16.70
2023-03-04T17:23:07.471Z,16.60
2023-03-04T17:25:34.574Z,16.50
2023-03-04T17:28:02.606Z,16.50
2023-03-04T17:33:14.134Z,16.30
2023-03-04T17:35:41.155Z,16.30
2023-03-04T17:38:08.315Z,16.20
2023-03-04T17:40:35.302Z,16.20
2023-03-04T17:43:03.444Z,16.10
2023-03-04T17:45:30.398Z,16.10
2023-03-04T17:47:57.365Z,16.00
2023-03-04T17:50:24.393Z,15.90
2023-03-04T17:52:51.507Z,15.90
2023-03-04T17:55:18.456Z,15.90
2023-03-04T17:57:45.354Z,15.80
2023-03-04T18:00:12.966Z,15.80
2023-03-04T18:02:40.294Z,15.70
2023-03-04T18:05:07.865Z,15.70
2023-03-04T18:07:34.854Z,15.70
2023-03-04T18:10:01.767Z,15.60
2023-03-04T18:12:28.812Z,15.60
2023-03-04T18:14:55.849Z,15.60
2023-03-04T18:17:23.525Z,15.50
2023-03-04T18:19:50.585Z,15.50
2023-03-04T18:22:17.866Z,15.50
2023-03-04T18:24:44.893Z,15.40
2023-03-04T18:27:11.888Z,15.40
2023-03-04T18:29:39.083Z,15.40
2023-03-04T18:32:06.379Z,15.40
2023-03-04T18:34:33.517Z,15.30
2023-03-04T18:37:00.664Z,15.30
2023-03-04T18:39:27.641Z,15.30
2023-03-04T18:41:54.763Z,15.20
2023-03-04T18:44:21.797Z,15.20
2023-03-04T18:46:53.483Z,15.20
2023-03-04T18:49:21.383Z,15.20
2023-03-04T18:51:48.366Z,15.10
2023-03-04T18:54:15.379Z,15.10
2023-03-04T18:56:54.208Z,15.10
2023-03-04T18:59:31.388Z,15.00
2023-03-04T19:02:03.720Z,15.00
2023-03-04T19:04:31.453Z,15.00
2023-03-04T19:07:00.301Z,15.00
2023-03-04T19:09:27.696Z,15.00
2023-03-04T19:11:54.664Z,14.90
2023-03-04T19:14:21.649Z,14.90
2023-03-04T19:16:48.666Z,14.90
2023-03-04T19:19:15.750Z,14.90
2023-03-04T19:21:42.806Z,14.80
2023-03-04T19:24:09.740Z,14.80
2023-03-04T19:26:36.818Z,14.80
2023-03-04T19:29:05.126Z,14.80
2023-03-04T19:31:32.100Z,14.70
2023-03-04T19:33:59.506Z,14.70
2023-03-04T19:36:26.531Z,14.70
2023-03-04T19:38:53.774Z,14.70
2023-03-04T19:41:20.744Z,14.70
2023-03-04T19:43:47.683Z,14.60
2023-03-04T19:46:14.745Z,14.60
2023-03-04T19:48:41.979Z,14.60
2023-03-04T19:51:21.463Z,14.60
2023-03-04T19:53:50.735Z,14.50
2023-03-04T19:56:18.035Z,14.50
2023-03-04T19:58:48.218Z,14.50
2023-03-04T20:01:27.910Z,14.40
2023-03-04T20:04:00.159Z,14.40
2023-03-04T20:06:27.950Z,14.40
2023-03-04T20:09:01.200Z,14.30
2023-03-04T20:11:29.171Z,14.30
2023-03-04T20:13:58.434Z,14.20
2023-03-04T20:16:26.152Z,14.20
2023-03-04T20:18:53.371Z,14.20
2023-03-04T20:21:20.419Z,14.20
2023-03-04T20:23:47.356Z,14.10
2023-03-04T20:26:14.440Z,14.10
2023-03-04T20:28:50.190Z,14.10
2023-03-04T20:31:23.617Z,14.10
2023-03-04T20:33:51.936Z,14.00
2023-03-04T20:36:21.397Z,14.00
2023-03-04T20:38:50.356Z,14.00
2023-03-04T20:41:19.488Z,13.90
2023-03-04T20:43:46.440Z,13.90
2023-03-04T20:46:41.265Z,13.80
2023-03-04T20:49:19.855Z,13.80
2023-03-04T20:51:46.792Z,13.80
2023-03-04T20:54:13.962Z,13.80
2023-03-04T20:56:41.188Z,13.80
2023-03-04T20:59:10.005Z,13.70
2023-03-04T21:01:39.189Z,13.70
2023-03-04T21:04:07.234Z,13.70
2023-03-04T21:06:34.315Z,13.70
2023-03-04T21:09:04.735Z,13.70
2023-03-04T21:11:31.947Z,13.60
2023-03-04T21:13:59.031Z,13.60
2023-03-04T21:16:29.587Z,13.60
2023-03-04T21:18:57.052Z,13.60
2023-03-04T21:21:27.134Z,13.60
2023-03-04T21:23:56.025Z,13.50
2023-03-04T21:26:23.959Z,13.50
2023-03-04T21:28:53.071Z,13.50
2023-03-04T21:31:30.990Z,13.50
2023-03-04T21:34:00.930Z,13.40
2023-03-04T21:36:28.027Z,13.40
2023-03-04T21:38:55.471Z,13.40
2023-03-04T21:41:24.187Z,13.30
2023-03-04T21:43:51.907Z,13.30
2023-03-04T21:46:19.327Z,13.30
2023-03-04T21:48:47.868Z,13.30
2023-03-04T21:51:16.735Z,13.30
2023-03-04T21:53:44.114Z,13.20
2023-03-04T21:56:12.485Z,13.20
2023-03-04T21:58:42.179Z,13.20
2023-03-04T22:01:11.458Z,13.20
2023-03-04T22:03:39.140Z,13.20
2023-03-04T22:06:07.755Z,13.10
2023-03-04T22:08:34.914Z,13.10
2023-03-04T22:11:06.778Z,13.10
2023-03-04T22:13:34.243Z,13.10
2023-03-04T22:16:01.767Z,13.10
2023-03-04T22:18:28.992Z,13.00
2023-03-04T22:21:04.280Z,13.00
2023-03-04T22:23:31.897Z,13.00
2023-03-04T22:26:06.465Z,12.90
2023-03-04T22:28:33.477Z,13.00
2023-03-04T22:31:01.972Z,12.90
2023-03-04T22:33:29.916Z,12.90
2023-03-04T22:35:57.319Z,12.90
2023-03-04T22:38:24.462Z,12.90
2023-03-04T22:40:51.479Z,12.80
2023-03-04T22:43:18.442Z,12.80
2023-03-04T22:45:45.429Z,12.80
2023-03-04T22:48:14.403Z,12.80
2023-03-04T22:50:41.849Z,12.80
2023-03-04T22:53:09.097Z,12.80
2023-03-04T22:55:36.190Z,12.80
2023-03-04T22:58:04.363Z,12.70
2023-03-04T23:00:32.096Z,12.70
2023-03-04T23:02:59.320Z,12.70
2023-03-04T23:05:26.499Z,12.70
2023-03-04T23:07:53.788Z,12.60
2023-03-04T23:10:24.509Z,12.60
2023-03-04T23:12:52.663Z,12.60
2023-03-04T23:15:20.022Z,12.60
2023-03-04T23:17:47.699Z,12.60
2023-03-04T23:20:17.855Z,12.50
2023-03-04T23:22:48.684Z,12.50
2023-03-04T23:25:17.101Z,12.50
2023-03-04T23:27:44.430Z,12.50
2023-03-04T23:30:16.716Z,12.50
2023-03-04T23:32:44.728Z,12.50
2023-03-04T23:35:12.539Z,12.40
2023-03-04T23:37:39.592Z,12.40
2023-03-04T23:40:07.245Z,12.40
2023-03-04T23:42:34.209Z,12.40
2023-03-04T23:45:01.177Z,12.40
2023-03-04T23:47:28.242Z,12.40
2023-03-04T23:49:55.451Z,12.40
2023-03-04T23:52:22.358Z,12.30
2023-03-04T23:54:49.320Z,12.30
2023-03-04T23:57:16.263Z,12.30
2023-03-04T23:59:43.369Z,12.30
